createdAt,value
2022-07-30T00:00:03.493Z,7.97
2022-07-30T00:04:49.067Z,7.10
2022-07-30T00:09:34.416Z,5.60
2022-07-30T00:14:21.256Z,6.07
2022-07-30T00:19:07.211Z,6.90
2022-07-30T00:24:01.929Z,7.27
2022-07-30T00:28:47.965Z,6.77
2022-07-30T00:33:32.042Z,6.33
2022-07-30T00:38:17.617Z,6.20
2022-07-30T00:43:01.818Z,7.10
2022-07-30T00:47:47.507Z,6.10
2022-07-30T00:52:34.930Z,6.77
2022-07-30T00:57:20.724Z,7.87
2022-07-30T01:02:05.102Z,8.43
2022-07-30T01:06:54.385Z,7.67
2022-07-30T01:11:42.879Z,7.70
2022-07-30T01:16:28.327Z,6.60
2022-07-30T01:21:13.706Z,8.90
2022-07-30T01:26:06.907Z,7.57
2022-07-30T01:30:53.320Z,7.93
2022-07-30T01:35:38.738Z,9.77
2022-07-30T01:40:27.375Z,7.63
2022-07-30T01:45:17.558Z,8.53
2022-07-30T01:50:03.116Z,8.63
2022-07-30T01:54:56.419Z,11.00
2022-07-30T01:59:42.994Z,14.07
2022-07-30T02:04:28.624Z,8.77
2022-07-30T02:09:17.633Z,9.33
2022-07-30T02:14:04.034Z,9.47
2022-07-30T02:18:58.518Z,9.83
2022-07-30T02:23:46.975Z,10.03
2022-07-30T02:28:34.045Z,10.13
2022-07-30T02:33:20.583Z,10.23
2022-07-30T02:38:09.392Z,10.67
2022-07-30T02:42:55.510Z,10.37
2022-07-30T02:47:44.089Z,11.33
2022-07-30T02:52:29.990Z,10.43
2022-07-30T02:57:16.174Z,10.83
2022-07-30T03:02:03.868Z,11.50
2022-07-30T03:06:49.619Z,10.80
2022-07-30T03:11:35.636Z,10.47
2022-07-30T03:16:21.005Z,11.43
2022-07-30T03:21:09.555Z,10.50
2022-07-30T03:25:56.495Z,11.27
2022-07-30T03:30:40.643Z,11.73
2022-07-30T03:35:26.531Z,11.20
2022-07-30T03:40:14.952Z,10.80
2022-07-30T03:44:59.486Z,10.93
2022-07-30T03:49:43.487Z,11.10
2022-07-30T03:54:28.042Z,12.43
2022-07-30T03:59:32.576Z,11.53
2022-07-30T04:04:16.323Z,11.37
2022-07-30T04:09:00.254Z,11.07
2022-07-30T04:13:43.738Z,10.57
2022-07-30T04:18:32.509Z,10.53
2022-07-30T04:23:17.788Z,9.90
2022-07-30T04:28:03.589Z,10.30
2022-07-30T04:32:48.653Z,9.90
2022-07-30T04:38:04.366Z,10.13
2022-07-30T04:42:49.623Z,9.90
2022-07-30T04:47:34.045Z,8.97
2022-07-30T04:52:37.721Z,9.13
2022-07-30T04:57:25.865Z,9.10
2022-07-30T05:02:12.270Z,10.10
2022-07-30T05:06:57.257Z,9.40
2022-07-30T05:11:41.098Z,9.60
2022-07-30T05:16:26.771Z,8.93
2022-07-30T05:21:12.844Z,9.47
2022-07-30T05:26:03.391Z,9.83
2022-07-30T05:30:52.943Z,8.80
2022-07-30T05:35:38.415Z,8.63
2022-07-30T05:40:22.414Z,8.73
2022-07-30T05:45:19.119Z,8.53
2022-07-30T05:50:05.234Z,8.40
2022-07-30T05:54:50.847Z,9.17
2022-07-30T05:59:54.271Z,9.03
2022-07-30T06:04:46.295Z,7.00
2022-07-30T06:09:36.878Z,7.23
2022-07-30T06:14:23.864Z,7.63
2022-07-30T06:19:08.098Z,6.77
2022-07-30T06:24:03.194Z,8.63
2022-07-30T06:28:54.993Z,5.60
2022-07-30T06:33:48.741Z,7.93
2022-07-30T06:38:32.822Z,6.37
2022-07-30T06:43:25.569Z,7.40
2022-07-30T06:48:32.977Z,7.03
2022-07-30T06:53:22.670Z,7.30
2022-07-30T06:58:25.970Z,6.33
2022-07-30T07:03:41.872Z,6.50
2022-07-30T07:08:27.506Z,11.53
2022-07-30T07:13:13.380Z,8.83
2022-07-30T07:17:57.368Z,10.70
2022-07-30T07:23:08.903Z,8.17
2022-07-30T07:28:12.435Z,6.93
2022-07-30T07:32:59.464Z,7.40
2022-07-30T07:37:43.248Z,7.93
2022-07-30T07:42:34.736Z,7.47
2022-07-30T07:47:19.856Z,7.83
2022-07-30T07:52:19.059Z,8.27
2022-07-30T07:57:04.533Z,8.80
2022-07-30T08:01:55.309Z,9.17
2022-07-30T08:06:59.532Z,8.60
2022-07-30T08:12:01.951Z,8.97
2022-07-30T08:17:04.649Z,9.20
2022-07-30T08:22:18.569Z,9.23
2022-07-30T08:27:02.894Z,11.57
2022-07-30T08:31:47.636Z,8.97
2022-07-30T08:36:31.888Z,10.03
2022-07-30T08:41:20.523Z,9.17
2022-07-30T08:46:06.981Z,9.27
2022-07-30T08:51:24.641Z,9.57
2022-07-30T08:56:36.535Z,9.20
2022-07-30T09:01:20.938Z,8.43
2022-07-30T09:06:08.711Z,7.80
2022-07-30T09:10:53.271Z,6.93
2022-07-30T09:15:49.932Z,6.30
2022-07-30T09:20:39.619Z,6.37
2022-07-30T09:25:40.491Z,6.80
2022-07-30T09:30:54.097Z,6.80
2022-07-30T09:35:57.956Z,7.07
2022-07-30T09:41:17.220Z,7.40
2022-07-30T09:46:42.541Z,7.43
2022-07-30T09:51:56.302Z,7.23
2022-07-30T09:56:53.693Z,8.93
2022-07-30T10:01:54.955Z,8.00
2022-07-30T10:07:05.140Z,8.57
2022-07-30T10:12:01.013Z,9.90
2022-07-30T10:16:48.040Z,9.27
2022-07-30T10:21:36.031Z,10.07
2022-07-30T10:26:53.425Z,8.97
2022-07-30T10:32:03.044Z,8.80
2022-07-30T10:36:52.298Z,9.10
2022-07-30T10:41:48.577Z,8.90
2022-07-30T10:46:47.934Z,8.60
2022-07-30T10:51:46.633Z,10.00
2022-07-30T10:56:31.888Z,8.70
2022-07-30T11:01:18.499Z,9.17
2022-07-30T11:06:28.492Z,9.50
2022-07-30T11:12:01.715Z,9.00
2022-07-30T11:17:02.194Z,8.90
2022-07-30T11:22:06.999Z,9.47
2022-07-30T11:26:56.354Z,9.50
2022-07-30T11:31:58.497Z,7.50
2022-07-30T11:37:21.764Z,8.43
2022-07-30T11:42:30.395Z,6.93
2022-07-30T11:47:16.820Z,7.60
2022-07-30T11:52:01.083Z,7.43
2022-07-30T11:56:52.838Z,7.23
2022-07-30T12:01:38.062Z,8.40
2022-07-30T12:06:22.158Z,6.73
2022-07-30T12:11:06.118Z,6.93
2022-07-30T12:15:50.178Z,6.32
2022-07-30T12:20:37.178Z,7.57
2022-07-30T12:25:23.491Z,5.80
2022-07-30T12:30:12.901Z,7.15
2022-07-30T12:34:57.380Z,7.50
2022-07-30T12:40:15.191Z,6.88
2022-07-30T12:45:00.072Z,6.85
2022-07-30T12:49:49.417Z,10.27
2022-07-30T12:54:34.017Z,5.53
2022-07-30T12:59:24.032Z,6.80
2022-07-30T13:04:08.634Z,6.05
2022-07-30T13:08:55.105Z,6.28
2022-07-30T13:13:42.132Z,5.63
2022-07-30T13:18:28.127Z,5.47
2022-07-30T13:23:13.225Z,6.15
2022-07-30T13:28:01.901Z,6.13
2022-07-30T13:32:48.549Z,5.95
2022-07-30T13:37:43.744Z,8.23
2022-07-30T13:42:28.008Z,5.50
2022-07-30T13:47:12.049Z,5.37
2022-07-30T13:51:55.834Z,7.75
2022-07-30T13:56:41.714Z,8.85
2022-07-30T14:01:25.624Z,6.70
2022-07-30T14:06:10.881Z,7.18
2022-07-30T14:10:55.508Z,6.00
2022-07-30T14:15:41.126Z,8.07
2022-07-30T14:20:25.439Z,5.65
2022-07-30T14:25:12.994Z,5.72
2022-07-30T14:29:59.784Z,5.10
2022-07-30T14:34:49.413Z,5.28
2022-07-30T14:39:33.689Z,6.28
2022-07-30T14:44:17.440Z,5.70
2022-07-30T14:49:01.634Z,6.63
2022-07-30T14:53:48.427Z,5.38
2022-07-30T14:58:32.182Z,5.18
2022-07-30T15:03:18.516Z,5.70
2022-07-30T15:08:04.427Z,6.28
2022-07-30T15:13:04.841Z,4.68
2022-07-30T15:17:49.935Z,6.80
2022-07-30T15:22:33.863Z,6.63
2022-07-30T15:27:17.818Z,4.68
2022-07-30T15:32:03.229Z,8.98
2022-07-30T15:36:47.427Z,4.25
2022-07-30T15:41:31.316Z,5.22
2022-07-30T15:46:15.202Z,6.00
2022-07-30T15:51:03.843Z,4.93
2022-07-30T15:55:47.754Z,4.10
2022-07-30T16:00:37.095Z,7.83
2022-07-30T16:05:24.134Z,6.85
2022-07-30T16:10:10.769Z,6.63
2022-07-30T16:14:54.818Z,6.80
2022-07-30T16:19:38.950Z,5.87
2022-07-30T16:24:22.950Z,6.90
2022-07-30T16:29:11.970Z,7.00
2022-07-30T16:33:57.704Z,7.45
2022-07-30T16:38:41.767Z,5.90
2022-07-30T16:43:31.979Z,6.60
2022-07-30T16:48:17.666Z,11.40
2022-07-30T16:53:01.898Z,6.97
2022-07-30T16:57:46.692Z,7.40
2022-07-30T17:02:39.954Z,7.83
2022-07-30T17:07:28.625Z,6.30
2022-07-30T17:12:15.849Z,6.00
2022-07-30T17:17:03.953Z,9.53
2022-07-30T17:22:19.506Z,7.43
2022-07-30T17:27:05.856Z,5.93
2022-07-30T17:31:50.518Z,6.07
2022-07-30T17:36:38.387Z,6.67
2022-07-30T17:41:24.551Z,6.93
2022-07-30T17:46:10.532Z,6.33
2022-07-30T17:50:54.617Z,10.63
2022-07-30T17:55:38.420Z,6.47
2022-07-30T18:00:24.897Z,7.43
2022-07-30T18:05:11.381Z,11.37
2022-07-30T18:09:56.094Z,7.23
2022-07-30T18:14:40.630Z,8.80
2022-07-30T18:19:29.849Z,6.63
2022-07-30T18:24:15.281Z,7.23
2022-07-30T18:29:01.235Z,7.87
2022-07-30T18:33:45.191Z,9.73
2022-07-30T18:38:29.291Z,10.07
2022-07-30T18:43:14.533Z,10.67
2022-07-30T18:47:58.383Z,9.53
2022-07-30T18:52:42.847Z,9.10
2022-07-30T18:57:26.777Z,10.67
2022-07-30T19:02:12.587Z,11.63
2022-07-30T19:06:57.052Z,9.80
2022-07-30T19:11:42.449Z,11.23
2022-07-30T19:16:26.531Z,11.13
2022-07-30T19:21:14.489Z,11.27
2022-07-30T19:25:58.629Z,12.03
2022-07-30T19:30:42.536Z,11.67
2022-07-30T19:35:28.837Z,11.50
2022-07-30T19:40:15.466Z,12.93
2022-07-30T19:45:01.353Z,13.00
2022-07-30T19:49:48.432Z,13.20
2022-07-30T19:54:36.678Z,14.17
2022-07-30T19:59:45.850Z,14.47
2022-07-30T20:04:25.701Z,13.73
2022-07-30T20:09:14.047Z,14.37
2022-07-30T20:13:58.099Z,14.50
2022-07-30T20:18:46.013Z,13.03
2022-07-30T20:23:31.219Z,12.77
2022-07-30T20:28:15.449Z,12.70
2022-07-30T20:33:02.381Z,13.60
2022-07-30T20:37:55.645Z,11.97
2022-07-30T20:42:42.754Z,11.80
2022-07-30T20:47:34.489Z,12.73
2022-07-30T20:52:21.990Z,12.60
2022-07-30T20:57:08.630Z,13.20
2022-07-30T21:01:59.962Z,12.70
2022-07-30T21:06:46.074Z,11.73
2022-07-30T21:11:32.042Z,12.27
2022-07-30T21:16:23.203Z,12.20
2022-07-30T21:21:14.776Z,11.83
2022-07-30T21:26:04.936Z,12.53
2022-07-30T21:30:52.287Z,12.20
2022-07-30T21:35:37.902Z,10.90
2022-07-30T21:40:25.327Z,12.33
2022-07-30T21:45:09.867Z,11.57
2022-07-30T21:49:54.948Z,12.30
2022-07-30T21:54:48.433Z,11.80
2022-07-30T21:59:32.563Z,12.90
2022-07-30T22:04:17.146Z,11.07
2022-07-30T22:09:00.844Z,11.63
2022-07-30T22:13:51.357Z,12.20
2022-07-30T22:18:37.777Z,12.10
2022-07-30T22:23:23.753Z,11.40
2022-07-30T22:28:08.610Z,12.40
2022-07-30T22:32:54.317Z,11.83
2022-07-30T22:37:38.792Z,13.17
2022-07-30T22:47:50.837Z,13.63
2022-07-30T22:52:38.427Z,13.90
2022-07-30T22:57:23.048Z,12.87
2022-07-30T23:02:12.354Z,12.47
2022-07-30T23:06:59.561Z,12.40
2022-07-30T23:11:44.827Z,14.03
2022-07-30T23:12:29.082Z,12.97
2022-07-30T23:16:29.118Z,12.90
2022-07-30T23:21:13.148Z,13.27
2022-07-30T23:25:57.096Z,13.03
2022-07-30T23:30:42.212Z,13.10
2022-07-30T23:35:25.866Z,12.40
2022-07-30T23:40:13.216Z,13.67
2022-07-30T23:44:57.141Z,13.13
2022-07-30T23:49:42.623Z,12.53
2022-07-30T23:54:27.719Z,12.67
2022-07-30T23:59:12.461Z,12.40
